KCDH

Harrell Field Airport

Camden, Arkansas, USA
METAR KCDH 151855Z AUTO VRB06KT 3/4SM -DZ OVC004 11/10 A2975 RMK AO2
Observed Flight Rules
Feb-15 @ 18:55 UTC (13 minutes ago) Instrument Flight Rules
Wind Visibility Clouds Conditions
Variable at 6 knots 3/4 miles
  • Overcast at 400' AGL
  • Light Drizzle
Temperatures Readings
Current 11°C / 52°F
Dewpoint 10°C / 50°F
Humidity 94%
Altimeter 29.75" Hg
Pressure 1007.42 hPa
Elevation 35
METAR KCDH 151855Z AUTO VRB06KT 3/4SM -DZ OVC004 11/10 A2975 RMK AO2
Observed Flight Rules
Feb-15 @ 18:55 UTC
(13 minutes ago)
LIFR
Wind Visibility
Variable at 6 knots 3/4 miles
Clouds
  • Overcast at 400' AGL
Conditions
  • Light Drizzle
Temperature Dewpoint
11°C / 52°F 10°C / 50°F
Humidity Altimeter Pressure
94% 29.75" Hg 1007.42 hPa